sensor_id;sensor_type;location;lat;lon;timestamp;pressure;altitude;pressure_sealevel;temperature;humidity
6216;BME280;3141;49.234;9.326;2022-11-04T00:00:21;98652.47;;;14.14;81.86
6216;BME280;3141;49.234;9.326;2022-11-04T00:01:05;98649.63;;;14.22;81.87
6216;BME280;3141;49.234;9.326;2022-11-04T00:01:48;98652.88;;;14.11;81.25
6216;BME280;3141;49.234;9.326;2022-11-04T00:02:31;98650.44;;;14.03;81.96
6216;BME280;3141;49.234;9.326;2022-11-04T00:03:13;98659.41;;;14.02;81.97
6216;BME280;3141;49.234;9.326;2022-11-04T00:03:56;98649.41;;;14.10;81.99
6216;BME280;3141;49.234;9.326;2022-11-04T00:04:38;98656.34;;;13.98;82.18
6216;BME280;3141;49.234;9.326;2022-11-04T00:05:20;98654.50;;;14.12;82.11
6216;BME280;3141;49.234;9.326;2022-11-04T00:06:03;98649.44;;;14.17;81.54
6216;BME280;3141;49.234;9.326;2022-11-04T00:06:45;98653.09;;;14.16;81.74
6216;BME280;3141;49.234;9.326;2022-11-04T00:07:28;98647.16;;;14.14;81.62
6216;BME280;3141;49.234;9.326;2022-11-04T00:08:29;98648.78;;;14.08;81.71
6216;BME280;3141;49.234;9.326;2022-11-04T00:09:15;98654.91;;;14.09;82.07
6216;BME280;3141;49.234;9.326;2022-11-04T00:09:58;98638.38;;;14.20;81.67
6216;BME280;3141;49.234;9.326;2022-11-04T00:10:40;98641.25;;;14.25;81.36
6216;BME280;3141;49.234;9.326;2022-11-04T00:11:41;98636.56;;;14.20;81.15
6216;BME280;3141;49.234;9.326;2022-11-04T00:12:42;98634.91;;;14.13;80.71
6216;BME280;3141;49.234;9.326;2022-11-04T00:13:27;98627.56;;;14.28;81.00
6216;BME280;3141;49.234;9.326;2022-11-04T00:14:13;98632.44;;;14.24;80.72
6216;BME280;3141;49.234;9.326;2022-11-04T00:14:55;98633.91;;;14.27;80.41
6216;BME280;3141;49.234;9.326;2022-11-04T00:16:00;98629.22;;;14.29;80.57
6216;BME280;3141;49.234;9.326;2022-11-04T00:17:03;98630.00;;;14.36;79.92
6216;BME280;3141;49.234;9.326;2022-11-04T00:18:00;98638.22;;;14.41;79.51
6216;BME280;3141;49.234;9.326;2022-11-04T00:18:42;98636.16;;;14.30;79.30
6216;BME280;3141;49.234;9.326;2022-11-04T00:19:25;98640.25;;;14.26;80.10
6216;BME280;3141;49.234;9.326;2022-11-04T00:20:08;98639.81;;;14.22;80.49
6216;BME280;3141;49.234;9.326;2022-11-04T00:21:08;98643.06;;;14.18;80.64
6216;BME280;3141;49.234;9.326;2022-11-04T00:22:09;98641.91;;;14.27;80.37
6216;BME280;3141;49.234;9.326;2022-11-04T00:23:10;98642.09;;;14.32;80.12
6216;BME280;3141;49.234;9.326;2022-11-04T00:24:11;98636.94;;;14.17;80.60
6216;BME280;3141;49.234;9.326;2022-11-04T00:25:13;98647.56;;;14.11;80.83
6216;BME280;3141;49.234;9.326;2022-11-04T00:26:14;98644.50;;;14.14;80.51
6216;BME280;3141;49.234;9.326;2022-11-04T00:27:19;98644.31;;;14.22;80.39
6216;BME280;3141;49.234;9.326;2022-11-04T00:28:20;98653.72;;;14.18;80.11
6216;BME280;3141;49.234;9.326;2022-11-04T00:29:21;98651.47;;;14.21;79.86
6216;BME280;3141;49.234;9.326;2022-11-04T00:30:06;98663.13;;;14.20;80.59
6216;BME280;3141;49.234;9.326;2022-11-04T00:30:54;98663.56;;;14.30;80.21
6216;BME280;3141;49.234;9.326;2022-11-04T00:31:36;98655.75;;;14.22;80.24
6216;BME280;3141;49.234;9.326;2022-11-04T00:32:37;98652.13;;;14.30;80.13
6216;BME280;3141;49.234;9.326;2022-11-04T00:33:38;98659.84;;;14.25;79.91
6216;BME280;3141;49.234;9.326;2022-11-04T00:34:20;98650.28;;;14.30;79.78
6216;BME280;3141;49.234;9.326;2022-11-04T00:35:03;98650.91;;;14.32;79.63
6216;BME280;3141;49.234;9.326;2022-11-04T00:35:49;98659.06;;;14.31;79.94
6216;BME280;3141;49.234;9.326;2022-11-04T00:36:32;98669.44;;;14.06;80.09
6216;BME280;3141;49.234;9.326;2022-11-04T00:37:14;98665.13;;;14.12;80.62
6216;BME280;3141;49.234;9.326;2022-11-04T00:37:56;98671.69;;;14.16;79.92
6216;BME280;3141;49.234;9.326;2022-11-04T00:38:39;98670.06;;;14.15;80.26
6216;BME280;3141;49.234;9.326;2022-11-04T00:39:21;98671.69;;;14.16;80.24
6216;BME280;3141;49.234;9.326;2022-11-04T00:40:04;98663.94;;;14.21;79.94
6216;BME280;3141;49.234;9.326;2022-11-04T00:40:47;98670.69;;;14.17;80.05
6216;BME280;3141;49.234;9.326;2022-11-04T00:41:29;98671.28;;;14.12;80.40
6216;BME280;3141;49.234;9.326;2022-11-04T00:42:12;98670.44;;;14.05;80.68
6216;BME280;3141;49.234;9.326;2022-11-04T00:42:54;98669.28;;;14.27;79.69
6216;BME280;3141;49.234;9.326;2022-11-04T00:43:36;98661.13;;;14.29;79.29
6216;BME280;3141;49.234;9.326;2022-11-04T00:44:19;98673.78;;;14.33;79.19
6216;BME280;3141;49.234;9.326;2022-11-04T00:45:01;98673.38;;;14.43;78.74
6216;BME280;3141;49.234;9.326;2022-11-04T00:45:44;98660.91;;;14.30;78.80
6216;BME280;3141;49.234;9.326;2022-11-04T00:46:28;98669.69;;;14.31;79.13
6216;BME280;3141;49.234;9.326;2022-11-04T00:47:11;98673.19;;;14.44;78.82
6216;BME280;3141;49.234;9.326;2022-11-04T00:47:53;98669.72;;;14.44;78.49
6216;BME280;3141;49.234;9.326;2022-11-04T00:48:35;98671.75;;;14.48;78.67
6216;BME280;3141;49.234;9.326;2022-11-04T00:49:18;98671.31;;;14.51;78.56
6216;BME280;3141;49.234;9.326;2022-11-04T00:50:00;98672.38;;;14.44;79.37
6216;BME280;3141;49.234;9.326;2022-11-04T00:50:42;98672.34;;;14.31;79.05
6216;BME280;3141;49.234;9.326;2022-11-04T00:51:25;98673.78;;;14.33;79.73
6216;BME280;3141;49.234;9.326;2022-11-04T00:52:07;98677.28;;;14.34;79.31
6216;BME280;3141;49.234;9.326;2022-11-04T00:52:50;98678.50;;;14.38;79.42
6216;BME280;3141;49.234;9.326;2022-11-04T00:53:32;98683.00;;;14.37;78.70
6216;BME280;3141;49.234;9.326;2022-11-04T00:54:14;98679.72;;;14.29;79.25
6216;BME280;3141;49.234;9.326;2022-11-04T00:54:57;98684.00;;;14.30;79.44
6216;BME280;3141;49.234;9.326;2022-11-04T00:55:39;98686.22;;;14.20;79.91
6216;BME280;3141;49.234;9.326;2022-11-04T00:56:22;98685.81;;;14.16;79.69
6216;BME280;3141;49.234;9.326;2022-11-04T00:57:04;98678.50;;;14.31;79.40
6216;BME280;3141;49.234;9.326;2022-11-04T00:57:49;98679.09;;;14.46;78.80
6216;BME280;3141;49.234;9.326;2022-11-04T00:58:32;98676.66;;;14.38;79.61
6216;BME280;3141;49.234;9.326;2022-11-04T00:59:14;98685.03;;;14.48;79.18
6216;BME280;3141;49.234;9.326;2022-11-04T00:59:56;98682.78;;;14.52;78.98
6216;BME280;3141;49.234;9.326;2022-11-04T01:00:39;98674.22;;;14.30;79.24
6216;BME280;3141;49.234;9.326;2022-11-04T01:01:21;98686.06;;;14.28;79.73
6216;BME280;3141;49.234;9.326;2022-11-04T01:02:04;98683.97;;;14.17;79.85
6216;BME280;3141;49.234;9.326;2022-11-04T01:02:47;98678.03;;;14.21;79.99
6216;BME280;3141;49.234;9.326;2022-11-04T01:03:29;98681.56;;;14.28;79.98
6216;BME280;3141;49.234;9.326;2022-11-04T01:04:12;98678.50;;;14.38;79.30
6216;BME280;3141;49.234;9.326;2022-11-04T01:04:54;98681.34;;;14.30;79.72
6216;BME280;3141;49.234;9.326;2022-11-04T01:05:36;98676.47;;;14.27;79.53
6216;BME280;3141;49.234;9.326;2022-11-04T01:06:21;98680.75;;;14.41;79.14
6216;BME280;3141;49.234;9.326;2022-11-04T01:07:04;98678.50;;;14.38;79.61
6216;BME280;3141;49.234;9.326;2022-11-04T01:07:46;98681.16;;;14.38;79.78
6216;BME280;3141;49.234;9.326;2022-11-04T01:08:28;98682.38;;;14.42;79.25
6216;BME280;3141;49.234;9.326;2022-11-04T01:09:11;98676.66;;;14.45;79.13
6216;BME280;3141;49.234;9.326;2022-11-04T01:09:54;98674.81;;;14.39;79.07
6216;BME280;3141;49.234;9.326;2022-11-04T01:10:36;98684.63;;;14.38;79.28
6216;BME280;3141;49.234;9.326;2022-11-04T01:11:26;98672.97;;;14.33;79.53
6216;BME280;3141;49.234;9.326;2022-11-04T01:12:10;98685.84;;;14.36;79.07
6216;BME280;3141;49.234;9.326;2022-11-04T01:12:52;98678.69;;;14.43;79.18
6216;BME280;3141;49.234;9.326;2022-11-04T01:13:35;98672.34;;;14.31;79.24
6216;BME280;3141;49.234;9.326;2022-11-04T01:14:18;98672.72;;;14.21;79.33
6216;BME280;3141;49.234;9.326;2022-11-04T01:15:01;98675.44;;;14.41;79.06
6216;BME280;3141;49.234;9.326;2022-11-04T01:15:43;98676.84;;;14.50;78.58
6216;BME280;3141;49.234;9.326;2022-11-04T01:16:26;98677.06;;;14.35;78.46
6216;BME280;3141;49.234;9.326;2022-11-04T01:17:09;98669.28;;;14.47;78.59
6216;BME280;3141;49.234;9.326;2022-11-04T01:17:51;98672.75;;;14.34;78.80
6216;BME280;3141;49.234;9.326;2022-11-04T01:18:33;98681.13;;;14.25;78.99
6216;BME280;3141;49.234;9.326;2022-11-04T01:19:17;98675.22;;;14.36;78.68
6216;BME280;3141;49.234;9.326;2022-11-04T01:19:59;98681.97;;;14.32;79.42
6216;BME280;3141;49.234;9.326;2022-11-04T01:20:41;98678.91;;;14.35;78.69
6216;BME280;3141;49.234;9.326;2022-11-04T01:21:23;98685.63;;;14.31;79.15
6216;BME280;3141;49.234;9.326;2022-11-04T01:22:06;98692.00;;;14.30;78.72
6216;BME280;3141;49.234;9.326;2022-11-04T01:22:49;98689.50;;;14.22;78.63
6216;BME280;3141;49.234;9.326;2022-11-04T01:23:33;98691.97;;;14.23;79.10
6216;BME280;3141;49.234;9.326;2022-11-04T01:24:15;98689.34;;;14.30;78.92
6216;BME280;3141;49.234;9.326;2022-11-04T01:24:58;98690.38;;;14.29;78.38
6216;BME280;3141;49.234;9.326;2022-11-04T01:25:40;98684.84;;;14.30;78.60
6216;BME280;3141;49.234;9.326;2022-11-04T01:26:24;98682.38;;;14.42;78.63
6216;BME280;3141;49.234;9.326;2022-11-04T01:27:06;98684.22;;;14.41;78.32
6216;BME280;3141;49.234;9.326;2022-11-04T01:27:49;98689.94;;;14.45;78.38
6216;BME280;3141;49.234;9.326;2022-11-04T01:28:31;98692.22;;;14.48;77.90
6216;BME280;3141;49.234;9.326;2022-11-04T01:29:13;98691.41;;;14.41;78.28
6216;BME280;3141;49.234;9.326;2022-11-04T01:29:56;98690.56;;;14.34;78.07
6216;BME280;3141;49.234;9.326;2022-11-04T01:30:38;98695.88;;;14.47;78.17
6216;BME280;3141;49.234;9.326;2022-11-04T01:31:23;98698.34;;;14.55;77.97
6216;BME280;3141;49.234;9.326;2022-11-04T01:32:05;98703.88;;;14.60;77.97
6216;BME280;3141;49.234;9.326;2022-11-04T01:32:48;98698.53;;;14.53;78.05
6216;BME280;3141;49.234;9.326;2022-11-04T01:33:30;98705.69;;;14.33;78.23
6216;BME280;3141;49.234;9.326;2022-11-04T01:34:12;98699.97;;;14.36;78.22
6216;BME280;3141;49.234;9.326;2022-11-04T01:34:55;98691.38;;;14.47;78.11
6216;BME280;3141;49.234;9.326;2022-11-04T01:35:37;98690.16;;;14.43;78.27
6216;BME280;3141;49.234;9.326;2022-11-04T01:36:21;98693.63;;;14.44;78.14
6216;BME280;3141;49.234;9.326;2022-11-04T01:37:03;98701.22;;;14.34;78.29
6216;BME280;3141;49.234;9.326;2022-11-04T01:37:45;98689.94;;;14.32;78.35
6216;BME280;3141;49.234;9.326;2022-11-04T01:38:28;98702.41;;;14.31;78.14
6216;BME280;3141;49.234;9.326;2022-11-04T01:39:11;98687.72;;;14.35;78.43
6216;BME280;3141;49.234;9.326;2022-11-04T01:39:54;98686.69;;;14.49;77.85
6216;BME280;3141;49.234;9.326;2022-11-04T01:40:37;98690.97;;;14.44;77.84
6216;BME280;3141;49.234;9.326;2022-11-04T01:41:26;98686.06;;;14.34;77.77
6216;BME280;3141;49.234;9.326;2022-11-04T01:42:12;98693.41;;;14.26;78.12
6216;BME280;3141;49.234;9.326;2022-11-04T01:42:54;98692.41;;;14.27;78.53
6216;BME280;3141;49.234;9.326;2022-11-04T01:44:45;98690.56;;;14.53;77.19
6216;BME280;3141;49.234;9.326;2022-11-04T01:45:27;98688.09;;;14.52;77.47
6216;BME280;3141;49.234;9.326;2022-11-04T01:46:16;98705.91;;;14.58;77.31
6216;BME280;3141;49.234;9.326;2022-11-04T01:47:03;98695.06;;;14.40;77.65
6216;BME280;3141;49.234;9.326;2022-11-04T01:48:42;98698.69;;;14.13;78.46
6216;BME280;3141;49.234;9.326;2022-11-04T01:49:30;98698.72;;;14.26;78.07
6216;BME280;3141;49.234;9.326;2022-11-04T01:50:23;98700.59;;;14.45;77.58
6216;BME280;3141;49.234;9.326;2022-11-04T01:51:07;98693.84;;;14.55;77.31
6216;BME280;3141;49.234;9.326;2022-11-04T01:51:54;98706.13;;;14.56;77.12
6216;BME280;3141;49.234;9.326;2022-11-04T01:52:53;98704.88;;;14.33;77.25
6216;BME280;3141;49.234;9.326;2022-11-04T01:53:40;98701.22;;;14.40;77.18
6216;BME280;3141;49.234;9.326;2022-11-04T01:54:24;98703.66;;;14.42;77.00
6216;BME280;3141;49.234;9.326;2022-11-04T01:55:12;98702.63;;;14.30;77.57
6216;BME280;3141;49.234;9.326;2022-11-04T01:55:57;98706.25;;;14.22;77.75
6216;BME280;3141;49.234;9.326;2022-11-04T01:56:41;98704.41;;;14.10;78.10
6216;BME280;3141;49.234;9.326;2022-11-04T01:57:32;98702.59;;;14.17;78.09
6216;BME280;3141;49.234;9.326;2022-11-04T01:58:17;98694.63;;;14.17;78.21
6216;BME280;3141;49.234;9.326;2022-11-04T01:59:08;98702.22;;;14.26;78.07
6216;BME280;3141;49.234;9.326;2022-11-04T01:59:52;98695.19;;;14.19;78.08
6216;BME280;3141;49.234;9.326;2022-11-04T02:00:36;98699.09;;;14.16;78.37
6216;BME280;3141;49.234;9.326;2022-11-04T02:01:19;98694.44;;;14.31;77.87
6216;BME280;3141;49.234;9.326;2022-11-04T02:02:02;98697.09;;;14.31;77.50
6216;BME280;3141;49.234;9.326;2022-11-04T02:02:58;98684.00;;;14.36;77.01
6216;BME280;3141;49.234;9.326;2022-11-04T02:03:47;98693.63;;;14.31;77.43
6216;BME280;3141;49.234;9.326;2022-11-04T02:04:30;98690.94;;;14.24;77.79
6216;BME280;3141;49.234;9.326;2022-11-04T02:05:12;98690.56;;;14.34;77.54
6216;BME280;3141;49.234;9.326;2022-11-04T02:05:55;98694.41;;;14.25;77.87
6216;BME280;3141;49.234;9.326;2022-11-04T02:06:38;98696.44;;;14.23;78.12
6216;BME280;3141;49.234;9.326;2022-11-04T02:07:21;98689.47;;;14.09;78.55
6216;BME280;3141;49.234;9.326;2022-11-04T02:08:04;98686.63;;;14.17;78.58
6216;BME280;3141;49.234;9.326;2022-11-04T02:08:48;98691.28;;;14.02;78.54
6216;BME280;3141;49.234;9.326;2022-11-04T02:09:31;98691.28;;;13.95;78.88
6216;BME280;3141;49.234;9.326;2022-11-04T02:10:15;98688.41;;;13.90;79.22
6216;BME280;3141;49.234;9.326;2022-11-04T02:11:01;98692.72;;;13.98;79.02
6216;BME280;3141;49.234;9.326;2022-11-04T02:11:44;98687.41;;;13.98;78.99
6216;BME280;3141;49.234;9.326;2022-11-04T02:12:45;98684.31;;;13.87;79.32
6216;BME280;3141;49.234;9.326;2022-11-04T02:13:34;98687.97;;;13.80;79.48
6216;BME280;3141;49.234;9.326;2022-11-04T02:14:17;98689.03;;;13.85;79.81
6216;BME280;3141;49.234;9.326;2022-11-04T02:14:59;98682.69;;;13.93;79.47
6216;BME280;3141;49.234;9.326;2022-11-04T02:15:53;98684.69;;;13.71;79.43
6216;BME280;3141;49.234;9.326;2022-11-04T02:16:47;98689.59;;;13.74;79.55
6216;BME280;3141;49.234;9.326;2022-11-04T02:17:47;98690.44;;;13.81;79.54
6216;BME280;3141;49.234;9.326;2022-11-04T02:20:10;98690.25;;;13.89;78.46
6216;BME280;3141;49.234;9.326;2022-11-04T02:27:14;98693.94;;;13.95;78.93
6216;BME280;3141;49.234;9.326;2022-11-04T02:29:42;98699.25;;;13.88;79.19
6216;BME280;3141;49.234;9.326;2022-11-04T02:30:31;98706.44;;;14.01;78.28
6216;BME280;3141;49.234;9.326;2022-11-04T02:31:30;98705.81;;;14.06;78.66
6216;BME280;3141;49.234;9.326;2022-11-04T02:32:39;98701.13;;;14.01;78.48
6216;BME280;3141;49.234;9.326;2022-11-04T02:33:30;98697.84;;;14.06;78.35
6216;BME280;3141;49.234;9.326;2022-11-04T02:36:34;98683.53;;;14.07;78.28
6216;BME280;3141;49.234;9.326;2022-11-04T02:38:55;98678.41;;;13.85;78.53
6216;BME280;3141;49.234;9.326;2022-11-04T02:40:40;98667.56;;;13.93;78.47
6216;BME280;3141;49.234;9.326;2022-11-04T02:42:46;98673.09;;;13.99;78.38
6216;BME280;3141;49.234;9.326;2022-11-04T02:44:47;98680.81;;;13.80;78.71
6216;BME280;3141;49.234;9.326;2022-11-04T02:45:38;98682.25;;;13.83;79.01
6216;BME280;3141;49.234;9.326;2022-11-04T02:46:30;98679.38;;;13.78;79.18
6216;BME280;3141;49.234;9.326;2022-11-04T02:47:21;98683.09;;;13.83;79.06
6216;BME280;3141;49.234;9.326;2022-11-04T02:48:10;98688.00;;;13.86;78.85
6216;BME280;3141;49.234;9.326;2022-11-04T02:48:59;98687.16;;;13.73;78.81
6216;BME280;3141;49.234;9.326;2022-11-04T02:49:49;98691.06;;;13.83;79.06
6216;BME280;3141;49.234;9.326;2022-11-04T02:50:38;98697.22;;;13.90;78.53
6216;BME280;3141;49.234;9.326;2022-11-04T02:51:28;98698.63;;;14.00;78.40
6216;BME280;3141;49.234;9.326;2022-11-04T02:52:25;98695.34;;;13.84;78.86
6216;BME280;3141;49.234;9.326;2022-11-04T02:53:13;98703.84;;;13.67;79.32
6216;BME280;3141;49.234;9.326;2022-11-04T02:54:05;98699.78;;;13.71;79.61
6216;BME280;3141;49.234;9.326;2022-11-04T02:54:55;98700.22;;;13.81;78.73
6216;BME280;3141;49.234;9.326;2022-11-04T02:55:46;98700.84;;;13.76;78.82
6216;BME280;3141;49.234;9.326;2022-11-04T02:56:33;98695.34;;;13.84;78.69
6216;BME280;3141;49.234;9.326;2022-11-04T02:57:21;98699.59;;;13.79;78.94
6216;BME280;3141;49.234;9.326;2022-11-04T02:58:09;98706.72;;;13.65;79.10
6216;BME280;3141;49.234;9.326;2022-11-04T02:58:59;98704.28;;;13.70;78.73
6216;BME280;3141;49.234;9.326;2022-11-04T02:59:48;98707.75;;;13.71;79.11
6216;BME280;3141;49.234;9.326;2022-11-04T03:00:32;98705.53;;;13.74;78.95
6216;BME280;3141;49.234;9.326;2022-11-04T03:01:16;98711.25;;;13.71;78.40
6216;BME280;3141;49.234;9.326;2022-11-04T03:02:02;98707.53;;;13.66;78.98
6216;BME280;3141;49.234;9.326;2022-11-04T03:02:51;98701.59;;;13.57;79.27
6216;BME280;3141;49.234;9.326;2022-11-04T03:03:39;98698.53;;;13.60;79.07
6216;BME280;3141;49.234;9.326;2022-11-04T03:04:28;98708.53;;;13.58;79.20
6216;BME280;3141;49.234;9.326;2022-11-04T03:05:15;98707.72;;;13.58;78.65
6216;BME280;3141;49.234;9.326;2022-11-04T03:06:00;98710.00;;;13.67;78.41
6216;BME280;3141;49.234;9.326;2022-11-04T03:06:46;98717.59;;;13.77;78.23
6216;BME280;3141;49.234;9.326;2022-11-04T03:07:33;98712.50;;;13.82;77.98
6216;BME280;3141;49.234;9.326;2022-11-04T03:08:44;98713.94;;;13.84;77.72
6216;BME280;3141;49.234;9.326;2022-11-04T03:09:29;98703.50;;;13.83;77.73
6216;BME280;3141;49.234;9.326;2022-11-04T03:10:15;98703.91;;;13.80;77.84
6216;BME280;3141;49.234;9.326;2022-11-04T03:11:07;98700.44;;;13.79;77.91
6216;BME280;3141;49.234;9.326;2022-11-04T03:11:59;98703.84;;;13.60;78.40
6216;BME280;3141;49.234;9.326;2022-11-04T03:13:16;98710.03;;;13.74;78.47
6216;BME280;3141;49.234;9.326;2022-11-04T03:14:11;98720.69;;;13.87;77.76
6216;BME280;3141;49.234;9.326;2022-11-04T03:15:00;98716.38;;;13.79;77.79
6216;BME280;3141;49.234;9.326;2022-11-04T03:15:50;98717.53;;;13.64;78.48
6216;BME280;3141;49.234;9.326;2022-11-04T03:16:41;98720.06;;;13.78;78.34
6216;BME280;3141;49.234;9.326;2022-11-04T03:17:34;98724.34;;;13.79;78.22
6216;BME280;3141;49.234;9.326;2022-11-04T03:20:22;98737.00;;;13.77;77.97
6216;BME280;3141;49.234;9.326;2022-11-04T03:21:08;98737.38;;;13.68;78.19
6216;BME280;3141;49.234;9.326;2022-11-04T03:22:03;98741.66;;;13.62;78.82
6216;BME280;3141;49.234;9.326;2022-11-04T03:22:48;98746.56;;;13.65;78.65
6216;BME280;3141;49.234;9.326;2022-11-04T03:23:31;98750.91;;;13.79;78.38
6216;BME280;3141;49.234;9.326;2022-11-04T03:24:13;98744.53;;;13.74;78.16
6216;BME280;3141;49.234;9.326;2022-11-04T03:24:56;98748.44;;;13.78;77.82
6216;BME280;3141;49.234;9.326;2022-11-04T03:25:44;98753.16;;;13.82;77.64
6216;BME280;3141;49.234;9.326;2022-11-04T03:26:38;98757.63;;;13.75;78.15
6216;BME280;3141;49.234;9.326;2022-11-04T03:27:30;98754.19;;;13.81;77.80
6216;BME280;3141;49.234;9.326;2022-11-04T03:28:30;98756.88;;;13.88;77.57
6216;BME280;3141;49.234;9.326;2022-11-04T03:29:25;98755.03;;;13.88;77.59
6216;BME280;3141;49.234;9.326;2022-11-04T03:30:13;98754.59;;;13.78;77.92
6216;BME280;3141;49.234;9.326;2022-11-04T03:31:00;98755.16;;;13.74;78.23
6216;BME280;3141;49.234;9.326;2022-11-04T03:32:02;98749.50;;;13.83;77.91
6216;BME280;3141;49.234;9.326;2022-11-04T03:34:26;98732.72;;;13.76;78.22
6216;BME280;3141;49.234;9.326;2022-11-04T03:35:09;98734.53;;;13.76;78.01
6216;BME280;3141;49.234;9.326;2022-11-04T03:35:53;98732.09;;;13.74;78.28
6216;BME280;3141;49.234;9.326;2022-11-04T03:36:35;98732.31;;;13.79;78.38
6216;BME280;3141;49.234;9.326;2022-11-04T03:37:18;98735.31;;;13.63;78.80
6216;BME280;3141;49.234;9.326;2022-11-04T03:38:00;98730.69;;;13.78;78.53
6216;BME280;3141;49.234;9.326;2022-11-04T03:38:43;98725.19;;;13.86;78.37
6216;BME280;3141;49.234;9.326;2022-11-04T03:39:25;98723.56;;;13.92;77.90
6216;BME280;3141;49.234;9.326;2022-11-04T03:40:09;98725.78;;;13.82;78.13
6216;BME280;3141;49.234;9.326;2022-11-04T03:40:52;98720.41;;;13.62;78.89
6216;BME280;3141;49.234;9.326;2022-11-04T03:41:39;98719.59;;;13.68;79.16
6216;BME280;3141;49.234;9.326;2022-11-04T03:42:23;98722.66;;;13.65;79.23
6216;BME280;3141;49.234;9.326;2022-11-04T03:43:10;98721.75;;;13.45;79.24
6216;BME280;3141;49.234;9.326;2022-11-04T03:43:55;98724.16;;;13.34;79.84
6216;BME280;3141;49.234;9.326;2022-11-04T03:44:37;98727.47;;;13.42;80.00
6216;BME280;3141;49.234;9.326;2022-11-04T03:45:20;98738.94;;;13.49;79.90
6216;BME280;3141;49.234;9.326;2022-11-04T03:46:02;98743.84;;;13.52;79.43
6216;BME280;3141;49.234;9.326;2022-11-04T03:46:45;98746.72;;;13.57;78.74
6216;BME280;3141;49.234;9.326;2022-11-04T03:47:28;98755.47;;;13.51;79.33
6216;BME280;3141;49.234;9.326;2022-11-04T03:48:11;98764.28;;;13.58;79.31
6216;BME280;3141;49.234;9.326;2022-11-04T03:48:54;98758.63;;;13.68;78.84
6216;BME280;3141;49.234;9.326;2022-11-04T03:49:37;98761.78;;;13.44;79.36
6216;BME280;3141;49.234;9.326;2022-11-04T03:50:27;98768.19;;;13.56;79.47
6216;BME280;3141;49.234;9.326;2022-11-04T03:51:09;98760.13;;;13.43;79.32
6216;BME280;3141;49.234;9.326;2022-11-04T03:51:51;98763.22;;;13.46;79.78
6216;BME280;3141;49.234;9.326;2022-11-04T03:52:34;98768.66;;;13.32;80.28
6216;BME280;3141;49.234;9.326;2022-11-04T03:53:20;98766.66;;;13.40;80.18
6216;BME280;3141;49.234;9.326;2022-11-04T03:54:03;98768.41;;;13.61;79.49
6216;BME280;3141;49.234;9.326;2022-11-04T03:54:46;98766.75;;;13.60;79.06
6216;BME280;3141;49.234;9.326;2022-11-04T03:56:05;98766.44;;;13.35;79.51
6216;BME280;3141;49.234;9.326;2022-11-04T03:57:15;98765.63;;;13.41;79.35
6216;BME280;3141;49.234;9.326;2022-11-04T03:58:07;98771.56;;;13.43;79.38
6216;BME280;3141;49.234;9.326;2022-11-04T04:00:31;98770.44;;;13.59;78.98
6216;BME280;3141;49.234;9.326;2022-11-04T04:02:31;98775.97;;;13.64;78.67
6216;BME280;3141;49.234;9.326;2022-11-04T04:04:06;98776.63;;;13.72;78.26
6216;BME280;3141;49.234;9.326;2022-11-04T04:04:58;98777.44;;;13.66;78.40
6216;BME280;3141;49.234;9.326;2022-11-04T04:05:53;98774.72;;;13.60;78.38
6216;BME280;3141;49.234;9.326;2022-11-04T04:06:37;98782.72;;;13.66;77.98
6216;BME280;3141;49.234;9.326;2022-11-04T04:08:38;98773.34;;;13.70;78.00
6216;BME280;3141;49.234;9.326;2022-11-04T04:09:48;98781.31;;;13.70;78.18
6216;BME280;3141;49.234;9.326;2022-11-04T04:10:41;98773.75;;;13.67;78.30
6216;BME280;3141;49.234;9.326;2022-11-04T04:12:35;98777.19;;;13.61;78.63
6216;BME280;3141;49.234;9.326;2022-11-04T04:13:34;98782.94;;;13.65;78.09
6216;BME280;3141;49.234;9.326;2022-11-04T04:14:30;98781.47;;;13.62;78.45
6216;BME280;3141;49.234;9.326;2022-11-04T04:15:26;98782.34;;;13.69;78.17
6216;BME280;3141;49.234;9.326;2022-11-04T04:16:31;98787.31;;;13.51;78.57
6216;BME280;3141;49.234;9.326;2022-11-04T04:18:13;98786.25;;;13.39;79.13
6216;BME280;3141;49.234;9.326;2022-11-04T04:19:19;98779.53;;;13.43;78.79
6216;BME280;3141;49.234;9.326;2022-11-04T04:20:13;98774.66;;;13.47;78.41
6216;BME280;3141;49.234;9.326;2022-11-04T04:21:00;98780.13;;;13.39;78.80
6216;BME280;3141;49.234;9.326;2022-11-04T04:21:48;98780.13;;;13.39;79.15
6216;BME280;3141;49.234;9.326;2022-11-04T04:22:46;98787.44;;;13.30;79.16
6216;BME280;3141;49.234;9.326;2022-11-04T04:23:31;98780.13;;;13.39;78.98
6216;BME280;3141;49.234;9.326;2022-11-04T04:24:35;98786.16;;;13.26;78.48
6216;BME280;3141;49.234;9.326;2022-11-04T04:25:38;98788.31;;;13.44;78.17
6216;BME280;3141;49.234;9.326;2022-11-04T04:26:39;98784.66;;;13.45;78.55
6216;BME280;3141;49.234;9.326;2022-11-04T04:27:42;98786.53;;;13.51;78.28
6216;BME280;3141;49.234;9.326;2022-11-04T04:28:25;98781.84;;;13.53;78.18
6216;BME280;3141;49.234;9.326;2022-11-04T04:29:08;98784.31;;;13.54;78.03
6216;BME280;3141;49.234;9.326;2022-11-04T04:29:52;98782.66;;;13.53;77.50
6216;BME280;3141;49.234;9.326;2022-11-04T04:30:35;98783.72;;;13.59;77.12
6216;BME280;3141;49.234;9.326;2022-11-04T04:31:18;98779.22;;;13.59;77.53
6216;BME280;3141;49.234;9.326;2022-11-04T04:32:23;98775.72;;;13.52;77.72
6216;BME280;3141;49.234;9.326;2022-11-04T04:33:12;98773.28;;;13.57;77.25
6216;BME280;3141;49.234;9.326;2022-11-04T04:33:56;98777.94;;;13.49;77.61
6216;BME280;3141;49.234;9.326;2022-11-04T04:34:39;98780.69;;;13.34;78.05
6216;BME280;3141;49.234;9.326;2022-11-04T04:35:26;98781.75;;;13.40;77.88
6216;BME280;3141;49.234;9.326;2022-11-04T04:36:23;98786.47;;;13.44;77.58
6216;BME280;3141;49.234;9.326;2022-11-04T04:37:23;98785.50;;;13.52;77.26
6216;BME280;3141;49.234;9.326;2022-11-04T04:38:12;98791.25;;;13.55;77.80
6216;BME280;3141;49.234;9.326;2022-11-04T04:39:17;98780.16;;;13.45;77.82
6216;BME280;3141;49.234;9.326;2022-11-04T04:40:22;98778.94;;;13.48;77.68
6216;BME280;3141;49.234;9.326;2022-11-04T04:41:28;98774.66;;;13.47;78.01
6216;BME280;3141;49.234;9.326;2022-11-04T04:42:31;98776.53;;;13.53;77.78
6216;BME280;3141;49.234;9.326;2022-11-04T04:43:33;98777.97;;;13.55;77.41
6216;BME280;3141;49.234;9.326;2022-11-04T04:44:35;98776.94;;;13.56;77.36
6216;BME280;3141;49.234;9.326;2022-11-04T04:45:39;98780.19;;;13.52;77.99
6216;BME280;3141;49.234;9.326;2022-11-04T04:46:23;98784.31;;;13.54;77.54
6216;BME280;3141;49.234;9.326;2022-11-04T04:47:07;98788.59;;;13.55;77.26
6216;BME280;3141;49.234;9.326;2022-11-04T04:47:50;98787.16;;;13.53;77.33
6216;BME280;3141;49.234;9.326;2022-11-04T04:48:33;98788.78;;;13.54;77.90
6216;BME280;3141;49.234;9.326;2022-11-04T04:49:16;98784.44;;;13.46;77.75